createdAt,value
2017-08-28T00:00:45.025Z,64.98
2017-08-28T00:01:44.726Z,64.79
2017-08-28T00:02:44.720Z,64.89
2017-08-28T00:03:44.707Z,64.98
2017-08-28T00:04:44.695Z,65.08
2017-08-28T00:05:44.692Z,65.27
2017-08-28T00:06:44.708Z,65.27
2017-08-28T00:07:44.675Z,65.46
2017-08-28T00:08:44.663Z,65.46
2017-08-28T00:09:44.689Z,65.36
2017-08-28T00:10:44.655Z,65.65
2017-08-28T00:11:44.644Z,65.46
2017-08-28T00:12:44.634Z,65.27
2017-08-28T00:13:44.625Z,65.36
2017-08-28T00:14:44.909Z,65.36
2017-08-28T00:15:44.605Z,65.36
2017-08-28T00:16:44.609Z,65.36
2017-08-28T00:17:44.598Z,65.36
2017-08-28T00:18:44.582Z,65.36
2017-08-28T00:19:44.586Z,65.27
2017-08-28T00:20:44.926Z,65.75
2017-08-28T00:21:44.556Z,65.65
2017-08-28T00:22:44.561Z,65.36
2017-08-28T00:23:44.539Z,65.75
2017-08-28T00:24:44.549Z,65.17
2017-08-28T00:25:44.522Z,65.17
2017-08-28T00:26:44.730Z,65.46
2017-08-28T00:27:44.506Z,64.98
2017-08-28T00:28:44.499Z,65.08
2017-08-28T00:29:44.492Z,65.65
2017-08-28T00:30:44.482Z,65.36
2017-08-28T00:31:44.481Z,65.56
2017-08-28T00:32:44.840Z,65.46
2017-08-28T00:33:44.454Z,65.36
2017-08-28T00:34:44.457Z,65.36
2017-08-28T00:35:44.440Z,65.27
2017-08-28T00:36:44.446Z,65.65
2017-08-28T00:37:44.425Z,65.84
2017-08-28T00:38:44.451Z,65.46
2017-08-28T00:39:44.406Z,65.84
2017-08-28T00:40:44.403Z,65.36
2017-08-28T00:41:44.809Z,65.33
2017-08-28T00:42:44.381Z,65.17
2017-08-28T00:43:44.377Z,65.36
2017-08-28T00:44:44.369Z,65.36
2017-08-28T00:45:44.362Z,65.62
2017-08-28T00:46:44.355Z,65.43
2017-08-28T00:47:44.731Z,65.27
2017-08-28T00:48:44.339Z,65.75
2017-08-28T00:49:44.332Z,65.72
2017-08-28T00:50:44.309Z,65.62
2017-08-28T00:51:44.315Z,65.81
2017-08-28T00:52:44.292Z,65.62
2017-08-28T00:53:44.326Z,65.52
2017-08-28T00:54:44.287Z,65.62
2017-08-28T00:55:44.285Z,65.72
2017-08-28T00:56:44.620Z,65.81
2017-08-28T00:57:44.261Z,66.10
2017-08-28T00:58:44.255Z,65.91
2017-08-28T00:59:44.258Z,65.81
2017-08-28T01:00:44.245Z,65.81
2017-08-28T01:01:44.220Z,66.86
2017-08-28T01:02:44.556Z,66.77
2017-08-28T01:03:44.210Z,66.77
2017-08-28T01:04:44.195Z,66.49
2017-08-28T01:05:44.203Z,66.49
2017-08-28T01:06:44.176Z,66.49
2017-08-28T01:07:44.187Z,66.58
2017-08-28T01:08:44.547Z,66.39
2017-08-28T01:09:44.168Z,66.67
2017-08-28T01:10:44.141Z,66.49
2017-08-28T01:11:44.149Z,66.77
2017-08-28T01:12:44.125Z,66.77
2017-08-28T01:13:44.129Z,66.39
2017-08-28T01:14:44.339Z,66.29
2017-08-28T01:15:44.110Z,66.86
2017-08-28T01:16:44.099Z,66.67
2017-08-28T01:17:44.103Z,66.29
2017-08-28T01:18:44.086Z,66.49
2017-08-28T01:19:44.070Z,66.58
2017-08-28T01:20:44.505Z,66.58
2017-08-28T01:21:44.061Z,66.29
2017-08-28T01:22:44.034Z,66.58
2017-08-28T01:23:44.036Z,66.19
2017-08-28T01:24:44.023Z,66.39
2017-08-28T01:25:44.047Z,66.29
2017-08-28T01:26:44.357Z,66.39
2017-08-28T01:27:43.997Z,66.39
2017-08-28T01:28:44.006Z,66.49
2017-08-28T01:29:43.987Z,66.67
2017-08-28T01:30:43.976Z,66.67
2017-08-28T01:31:43.983Z,66.67
2017-08-28T01:32:44.349Z,66.77
2017-08-28T01:33:43.953Z,66.49
2017-08-28T01:34:43.936Z,66.49
2017-08-28T01:35:43.927Z,66.49
2017-08-28T01:36:43.932Z,66.58
2017-08-28T01:37:43.927Z,66.86
2017-08-28T01:38:43.936Z,66.19
2017-08-28T01:39:43.908Z,66.86
2017-08-28T01:40:43.898Z,66.58
2017-08-28T01:41:43.895Z,66.58
2017-08-28T01:42:44.242Z,65.91
2017-08-28T01:43:43.863Z,66.58
2017-08-28T01:44:43.865Z,65.91
2017-08-28T01:45:43.855Z,66.00
2017-08-28T01:46:43.855Z,66.29
2017-08-28T01:47:43.833Z,65.91
2017-08-28T01:48:43.851Z,65.91
2017-08-28T01:49:43.817Z,65.81
2017-08-28T01:50:43.803Z,65.91
2017-08-28T01:51:43.802Z,65.91
2017-08-28T01:52:44.219Z,65.81
2017-08-28T01:53:43.774Z,65.91
2017-08-28T01:54:43.763Z,66.39
2017-08-28T01:55:43.773Z,66.10
2017-08-28T01:56:43.757Z,66.00
2017-08-28T01:57:43.744Z,65.91
2017-08-28T01:58:44.129Z,65.91
2017-08-28T01:59:43.728Z,66.00
2017-08-28T02:00:43.711Z,65.91
2017-08-28T02:01:43.707Z,65.91
2017-08-28T02:02:43.713Z,65.81
2017-08-28T02:03:43.704Z,66.10
2017-08-28T02:04:43.723Z,65.81
2017-08-28T02:05:43.684Z,65.81
2017-08-28T02:06:43.664Z,65.81
2017-08-28T02:07:43.654Z,65.81
2017-08-28T02:08:43.641Z,65.91
2017-08-28T02:09:43.677Z,66.10
2017-08-28T02:10:43.649Z,65.81
2017-08-28T02:11:43.626Z,65.81
2017-08-28T02:12:43.612Z,66.00
2017-08-28T02:13:43.601Z,65.91
2017-08-28T02:14:43.956Z,65.81
2017-08-28T02:15:43.613Z,66.49
2017-08-28T02:16:43.575Z,65.91
2017-08-28T02:17:43.583Z,65.72
2017-08-28T02:18:43.575Z,66.00
2017-08-28T02:19:43.553Z,66.00
2017-08-28T02:20:43.978Z,66.29
2017-08-28T02:21:43.541Z,66.00
2017-08-28T02:22:43.541Z,66.00
2017-08-28T02:23:43.514Z,66.00
2017-08-28T02:24:43.513Z,66.86
2017-08-28T02:25:43.494Z,66.77
2017-08-28T02:26:43.941Z,66.58
2017-08-28T02:27:43.499Z,65.88
2017-08-28T02:28:43.487Z,65.59
2017-08-28T02:29:43.478Z,66.49
2017-08-28T02:30:43.458Z,66.58
2017-08-28T02:31:43.450Z,66.55
2017-08-28T02:32:43.476Z,66.64
2017-08-28T02:33:43.436Z,66.26
2017-08-28T02:34:43.865Z,66.45
2017-08-28T02:35:43.427Z,66.26
2017-08-28T02:36:43.407Z,66.35
2017-08-28T02:37:43.392Z,66.55
2017-08-28T02:38:43.387Z,66.45
2017-08-28T02:39:43.376Z,66.45
2017-08-28T02:40:43.736Z,66.55
2017-08-28T02:41:43.371Z,66.45
2017-08-28T02:42:43.361Z,66.55
2017-08-28T02:43:43.338Z,66.64
2017-08-28T02:44:43.336Z,66.55
2017-08-28T02:45:43.327Z,66.83
2017-08-28T02:46:43.622Z,66.35
2017-08-28T02:47:43.323Z,66.83
2017-08-28T02:48:43.321Z,66.45
2017-08-28T02:49:43.289Z,66.93
2017-08-28T02:50:43.290Z,66.74
2017-08-28T02:51:43.286Z,66.55
2017-08-28T02:52:43.703Z,66.77
2017-08-28T02:53:43.254Z,66.83
2017-08-28T02:54:43.264Z,66.64
2017-08-28T02:55:43.248Z,66.74
2017-08-28T02:56:43.241Z,66.83
2017-08-28T02:57:43.218Z,66.93
2017-08-28T02:58:43.522Z,66.93
2017-08-28T02:59:43.205Z,66.16
2017-08-28T03:00:43.195Z,66.93
2017-08-28T03:01:43.207Z,66.19
2017-08-28T03:02:43.173Z,66.83
2017-08-28T03:03:43.176Z,66.77
2017-08-28T03:04:43.481Z,66.55
2017-08-28T03:05:43.149Z,67.02
2017-08-28T03:06:43.149Z,66.83
2017-08-28T03:07:43.132Z,67.02
2017-08-28T03:08:43.123Z,66.45
2017-08-28T03:09:43.121Z,66.55
2017-08-28T03:10:43.518Z,66.93
2017-08-28T03:11:43.106Z,66.83
2017-08-28T03:12:43.093Z,66.74
2017-08-28T03:13:43.086Z,66.93
2017-08-28T03:14:43.084Z,66.83
2017-08-28T03:15:43.064Z,66.64
2017-08-28T03:16:43.496Z,66.45
2017-08-28T03:17:43.048Z,67.12
2017-08-28T03:18:43.036Z,66.93
2017-08-28T03:19:43.044Z,66.93
2017-08-28T03:20:43.018Z,67.12
2017-08-28T03:21:43.021Z,67.02
2017-08-28T03:22:43.362Z,66.83
2017-08-28T03:23:42.996Z,66.83
2017-08-28T03:24:42.996Z,66.83
2017-08-28T03:25:42.970Z,66.64
2017-08-28T03:26:42.982Z,67.12
2017-08-28T03:27:42.959Z,66.83
2017-08-28T03:28:43.299Z,67.12
2017-08-28T03:29:42.940Z,67.41
2017-08-28T03:30:42.926Z,67.41
2017-08-28T03:31:42.926Z,67.41
2017-08-28T03:32:42.924Z,67.41
2017-08-28T03:33:42.920Z,67.22
2017-08-28T03:34:43.111Z,67.38
2017-08-28T03:35:42.883Z,67.38
2017-08-28T03:36:42.889Z,67.18
2017-08-28T03:37:42.889Z,67.18
2017-08-28T03:38:42.876Z,67.18
2017-08-28T03:39:42.867Z,67.32
2017-08-28T03:40:43.055Z,67.28
2017-08-28T03:41:42.835Z,66.99
2017-08-28T03:42:42.829Z,67.79
2017-08-28T03:43:42.833Z,67.28
2017-08-28T03:44:42.823Z,66.99
2017-08-28T03:45:42.802Z,67.76
2017-08-28T03:46:43.085Z,67.66
2017-08-28T03:47:42.780Z,67.57
2017-08-28T03:48:42.768Z,67.57
2017-08-28T03:49:42.761Z,67.95
2017-08-28T03:50:42.760Z,67.66
2017-08-28T03:51:42.757Z,67.57
2017-08-28T03:52:43.044Z,67.85
2017-08-28T03:53:42.725Z,67.66
2017-08-28T03:54:42.724Z,67.85
2017-08-28T03:55:42.716Z,67.85
2017-08-28T03:56:42.699Z,67.18
2017-08-28T03:57:42.692Z,67.76
2017-08-28T03:58:42.901Z,67.66
2017-08-28T03:59:42.670Z,67.85
2017-08-28T04:00:42.675Z,68.05
2017-08-28T04:01:42.656Z,67.95
2017-08-28T04:02:42.650Z,67.66
2017-08-28T04:03:42.653Z,68.24
2017-08-28T04:04:42.869Z,68.05
2017-08-28T04:05:42.619Z,68.05
2017-08-28T04:06:42.612Z,68.33
2017-08-28T04:07:42.598Z,68.05
2017-08-28T04:08:42.588Z,68.05
2017-08-28T04:09:42.575Z,67.85
2017-08-28T04:10:42.890Z,68.14
2017-08-28T04:11:42.560Z,68.52
2017-08-28T04:12:42.560Z,68.24
2017-08-28T04:13:42.540Z,68.81
2017-08-28T04:14:42.550Z,68.43
2017-08-28T04:15:42.532Z,68.52
2017-08-28T04:16:42.848Z,68.43
2017-08-28T04:17:42.513Z,68.91
2017-08-28T04:18:42.504Z,68.62
2017-08-28T04:19:42.486Z,68.62
2017-08-28T04:20:42.489Z,68.62
2017-08-28T04:21:42.473Z,68.91
2017-08-28T04:22:42.775Z,68.33
2017-08-28T04:23:42.458Z,68.52
2017-08-28T04:24:42.459Z,68.62
2017-08-28T04:25:42.448Z,68.43
2017-08-28T04:26:42.431Z,68.52
2017-08-28T04:27:42.424Z,68.52
2017-08-28T04:28:42.776Z,68.52
2017-08-28T04:29:42.411Z,68.43
2017-08-28T04:30:42.418Z,68.52
2017-08-28T04:31:42.390Z,68.72
2017-08-28T04:32:42.381Z,68.62
2017-08-28T04:33:42.370Z,68.91
2017-08-28T04:34:42.739Z,68.72
2017-08-28T04:35:42.360Z,69.01
2017-08-28T04:36:42.331Z,68.72
2017-08-28T04:37:42.396Z,68.72
2017-08-28T04:38:42.325Z,68.62
2017-08-28T04:39:42.306Z,68.62
2017-08-28T04:40:42.611Z,68.72
2017-08-28T04:41:42.291Z,68.87
2017-08-28T04:42:42.289Z,68.72
2017-08-28T04:43:42.291Z,68.52
2017-08-28T04:44:42.254Z,68.62
2017-08-28T04:45:42.253Z,68.81
2017-08-28T04:46:42.545Z,68.62
2017-08-28T04:47:42.235Z,69.01
2017-08-28T04:48:42.226Z,68.49
2017-08-28T04:49:42.217Z,68.68
2017-08-28T04:50:42.213Z,68.62
2017-08-28T04:51:42.204Z,68.62
2017-08-28T04:52:42.517Z,68.62
2017-08-28T04:53:42.185Z,68.72
2017-08-28T04:54:42.161Z,68.49
2017-08-28T04:55:42.157Z,68.91
2017-08-28T04:56:42.157Z,68.81
2017-08-28T04:57:42.146Z,68.72
2017-08-28T04:58:42.579Z,68.81
2017-08-28T04:59:42.118Z,68.59
2017-08-28T05:00:42.121Z,68.62
2017-08-28T05:01:42.099Z,68.40
2017-08-28T05:02:42.092Z,68.40
2017-08-28T05:03:42.092Z,68.21
2017-08-28T05:04:42.415Z,68.68
2017-08-28T05:05:42.069Z,68.49
2017-08-28T05:06:42.071Z,68.59
2017-08-28T05:07:42.041Z,68.97
2017-08-28T05:08:42.056Z,68.97
2017-08-28T05:09:42.034Z,68.87
2017-08-28T05:10:42.358Z,69.07
2017-08-28T05:11:42.022Z,68.78
2017-08-28T05:12:42.014Z,68.87
2017-08-28T05:13:41.998Z,69.17
2017-08-28T05:14:41.996Z,69.07
2017-08-28T05:15:41.982Z,69.17
2017-08-28T05:16:42.254Z,68.97
2017-08-28T05:17:41.956Z,69.26
2017-08-28T05:18:41.958Z,69.17
2017-08-28T05:19:41.944Z,69.35
2017-08-28T05:20:41.936Z,69.35
2017-08-28T05:21:41.913Z,69.17
2017-08-28T05:22:42.267Z,69.35
2017-08-28T05:23:41.906Z,69.17
2017-08-28T05:24:41.895Z,69.35
2017-08-28T05:25:41.905Z,69.35
2017-08-28T05:26:41.866Z,69.35
2017-08-28T05:27:41.860Z,69.45
2017-08-28T05:28:42.197Z,69.35
2017-08-28T05:29:41.849Z,69.45
2017-08-28T05:30:41.828Z,69.35
2017-08-28T05:31:41.818Z,69.35
2017-08-28T05:32:41.818Z,69.45
2017-08-28T05:33:41.814Z,69.35
2017-08-28T05:34:41.814Z,69.45
2017-08-28T05:35:41.785Z,69.45
2017-08-28T05:36:41.774Z,69.45
2017-08-28T05:37:41.793Z,69.35
2017-08-28T05:38:41.754Z,69.45
2017-08-28T05:39:42.203Z,69.45
2017-08-28T05:40:41.748Z,69.74
2017-08-28T05:41:41.747Z,69.64
2017-08-28T05:42:41.717Z,69.93
2017-08-28T05:43:41.711Z,69.74
2017-08-28T05:44:41.700Z,69.64
2017-08-28T05:45:42.096Z,69.83
2017-08-28T05:46:41.679Z,69.64
2017-08-28T05:47:41.671Z,69.68
2017-08-28T05:48:41.659Z,69.64
2017-08-28T05:49:41.658Z,69.87
2017-08-28T05:50:41.660Z,69.87
2017-08-28T05:51:41.684Z,69.68
2017-08-28T05:52:41.627Z,69.77
2017-08-28T05:53:41.624Z,69.39
2017-08-28T05:54:41.607Z,69.48
2017-08-28T05:55:41.613Z,69.64
2017-08-28T05:56:42.023Z,69.68
2017-08-28T05:57:41.577Z,69.64
2017-08-28T05:58:41.582Z,69.64
2017-08-28T05:59:41.573Z,69.48
2017-08-28T06:00:41.572Z,69.48
2017-08-28T06:01:41.554Z,69.48
2017-08-28T06:02:41.563Z,69.58
2017-08-28T06:03:41.517Z,69.68
2017-08-28T06:04:41.533Z,69.58
2017-08-28T06:05:41.529Z,69.48
2017-08-28T06:06:41.834Z,69.68
2017-08-28T06:07:41.494Z,69.48
2017-08-28T06:08:41.474Z,69.58
2017-08-28T06:09:41.469Z,69.48
2017-08-28T06:10:41.471Z,69.58
2017-08-28T06:11:41.458Z,69.68
2017-08-28T06:12:41.489Z,69.48
2017-08-28T06:13:41.430Z,69.48
2017-08-28T06:14:41.421Z,70.15
2017-08-28T06:15:41.410Z,70.15
2017-08-28T06:16:41.434Z,69.68
2017-08-28T06:17:41.747Z,70.35
2017-08-28T06:18:41.385Z,70.15
2017-08-28T06:19:41.377Z,70.25
2017-08-28T06:20:41.394Z,70.73
2017-08-28T06:21:41.372Z,70.54
2017-08-28T06:22:41.356Z,70.54
2017-08-28T06:23:41.666Z,70.73
2017-08-28T06:24:41.327Z,70.64
2017-08-28T06:25:41.333Z,70.54
2017-08-28T06:26:41.313Z,70.92
2017-08-28T06:27:41.303Z,70.83
2017-08-28T06:28:41.323Z,70.73
2017-08-28T06:29:41.634Z,70.54
2017-08-28T06:30:41.278Z,70.73
2017-08-28T06:31:41.284Z,70.54
2017-08-28T06:32:41.261Z,70.54
2017-08-28T06:33:41.270Z,70.83
2017-08-28T06:34:41.250Z,71.02
2017-08-28T06:35:41.272Z,70.54
2017-08-28T06:36:41.235Z,70.64
2017-08-28T06:37:41.220Z,70.92
2017-08-28T06:38:41.638Z,70.83
2017-08-28T06:39:41.195Z,70.73
2017-08-28T06:40:41.189Z,70.83
2017-08-28T06:41:41.178Z,70.73
2017-08-28T06:42:41.169Z,70.73
2017-08-28T06:43:41.157Z,70.73
2017-08-28T06:44:41.465Z,70.83
2017-08-28T06:45:41.167Z,70.64
2017-08-28T06:46:41.137Z,70.92
2017-08-28T06:47:41.132Z,70.64
2017-08-28T06:48:41.120Z,70.73
2017-08-28T06:49:41.101Z,70.83
2017-08-28T06:50:41.500Z,70.54
2017-08-28T06:51:41.104Z,70.64
2017-08-28T06:52:41.097Z,70.83
2017-08-28T06:53:41.065Z,70.83
2017-08-28T06:54:41.072Z,70.83
2017-08-28T06:55:41.060Z,70.57
2017-08-28T06:56:41.256Z,70.76
2017-08-28T06:57:41.056Z,70.57
2017-08-28T06:58:41.024Z,70.96
2017-08-28T06:59:41.024Z,70.57
2017-08-28T07:00:41.006Z,70.67
2017-08-28T07:01:41.008Z,70.96
2017-08-28T07:02:41.317Z,70.76
2017-08-28T07:03:40.977Z,70.48
2017-08-28T07:04:40.979Z,71.34
2017-08-28T07:05:40.994Z,71.25
2017-08-28T07:06:40.980Z,70.67
2017-08-28T07:07:40.954Z,70.57
2017-08-28T07:08:41.287Z,70.96
2017-08-28T07:09:40.925Z,71.15
2017-08-28T07:10:40.920Z,70.96
2017-08-28T07:11:40.923Z,70.96
2017-08-28T07:12:40.900Z,71.15
2017-08-28T07:13:40.900Z,71.05
2017-08-28T07:14:40.910Z,70.96
2017-08-28T07:15:40.894Z,71.25
2017-08-28T07:16:40.874Z,71.05
2017-08-28T07:17:40.860Z,71.34
2017-08-28T07:18:41.292Z,71.15
2017-08-28T07:19:40.838Z,71.34
2017-08-28T07:20:40.830Z,70.96
2017-08-28T07:21:40.834Z,71.05
2017-08-28T07:22:40.826Z,71.37
2017-08-28T07:23:40.802Z,71.15
2017-08-28T07:24:41.230Z,71.37
2017-08-28T07:25:40.801Z,71.15
2017-08-28T07:27:01.804Z,71.15
2017-08-28T07:27:40.795Z,71.15
2017-08-28T07:28:40.761Z,70.96
2017-08-28T07:29:40.770Z,70.90
2017-08-28T07:30:40.775Z,70.80
2017-08-28T07:31:40.745Z,70.57
2017-08-28T07:32:40.728Z,70.61
2017-08-28T07:33:40.720Z,71.28
2017-08-28T07:34:40.735Z,71.09
2017-08-28T07:35:40.713Z,71.09
2017-08-28T07:36:40.695Z,71.19
2017-08-28T07:37:40.685Z,71.09
2017-08-28T07:38:40.681Z,71.09
2017-08-28T07:39:41.012Z,70.90
2017-08-28T07:40:40.676Z,70.70
2017-08-28T07:41:40.678Z,70.61
2017-08-28T07:42:40.655Z,70.70
2017-08-28T07:43:40.636Z,70.61
2017-08-28T07:44:40.647Z,70.80
2017-08-28T07:45:40.960Z,70.90
2017-08-28T07:46:40.608Z,70.51
2017-08-28T07:47:40.617Z,70.61
2017-08-28T07:48:40.591Z,70.90
2017-08-28T07:49:40.581Z,70.61
2017-08-28T07:50:40.590Z,70.70
2017-08-28T07:51:40.937Z,70.61
2017-08-28T07:52:40.584Z,70.70
2017-08-28T07:53:40.557Z,70.90
2017-08-28T07:54:40.557Z,70.61
2017-08-28T07:55:40.541Z,70.70
2017-08-28T07:56:40.548Z,70.99
2017-08-28T07:57:40.919Z,70.80
2017-08-28T07:58:40.517Z,70.61
2017-08-28T07:59:40.499Z,70.80
2017-08-28T08:00:40.506Z,70.80
2017-08-28T08:01:40.493Z,70.61
2017-08-28T08:02:40.481Z,70.51
2017-08-28T08:03:40.773Z,70.80
2017-08-28T08:04:40.457Z,70.74
2017-08-28T08:05:40.452Z,70.84
2017-08-28T08:06:40.452Z,70.90
2017-08-28T08:07:40.447Z,70.51
2017-08-28T08:08:40.440Z,71.31
2017-08-28T08:09:40.721Z,71.51
2017-08-28T08:10:40.409Z,71.98
2017-08-28T08:11:40.413Z,72.08
2017-08-28T08:12:40.394Z,72.08
2017-08-28T08:13:40.397Z,72.37
2017-08-28T08:14:40.385Z,72.56
2017-08-28T08:15:40.401Z,72.56
2017-08-28T08:16:40.361Z,72.56
2017-08-28T08:17:40.372Z,72.66
2017-08-28T08:18:40.352Z,72.56
2017-08-28T08:19:40.551Z,72.47
2017-08-28T08:20:40.340Z,72.75
2017-08-28T08:21:40.325Z,72.95
2017-08-28T08:22:40.330Z,72.47
2017-08-28T08:23:40.306Z,73.24
2017-08-28T08:24:40.295Z,73.14
2017-08-28T08:25:40.679Z,73.14
2017-08-28T08:26:40.280Z,72.95
2017-08-28T08:27:40.276Z,72.56
2017-08-28T08:28:40.263Z,73.04
2017-08-28T08:29:40.269Z,72.85
2017-08-28T08:30:40.258Z,73.43
2017-08-28T08:31:40.693Z,74.04
2017-08-28T08:32:40.241Z,74.77
2017-08-28T08:33:40.249Z,74.90
2017-08-28T08:34:40.229Z,74.13
2017-08-28T08:35:40.225Z,74.04
2017-08-28T08:36:40.229Z,73.56
2017-08-28T08:37:40.552Z,72.69
2017-08-28T08:38:40.202Z,72.69
2017-08-28T08:39:40.184Z,72.69
2017-08-28T08:40:40.277Z,71.93
2017-08-28T08:41:40.378Z,72.12
2017-08-28T08:42:40.177Z,72.22
2017-08-28T08:43:40.558Z,71.83
2017-08-28T08:44:40.151Z,71.55
2017-08-28T08:45:40.144Z,71.73
2017-08-28T08:46:40.132Z,71.64
2017-08-28T08:47:40.119Z,71.55
2017-08-28T08:48:40.114Z,71.35
2017-08-28T08:49:40.466Z,71.83
2017-08-28T08:50:40.099Z,71.16
2017-08-28T08:51:40.088Z,71.29
2017-08-28T08:52:40.095Z,71.29
2017-08-28T08:53:40.089Z,71.19
2017-08-28T08:54:40.066Z,70.72
2017-08-28T08:55:40.439Z,71.00
2017-08-28T08:56:40.066Z,70.90
2017-08-28T08:57:40.166Z,70.90
2017-08-28T08:58:40.126Z,70.90
2017-08-28T08:59:40.164Z,70.81
2017-08-28T09:00:40.039Z,71.00
2017-08-28T09:01:40.431Z,70.81
2017-08-28T09:02:40.016Z,70.81
2017-08-28T09:03:40.024Z,70.62
2017-08-28T09:04:40.002Z,70.43
2017-08-28T09:05:39.994Z,70.72
2017-08-28T09:06:39.980Z,70.72
2017-08-28T09:07:40.278Z,70.43
2017-08-28T09:08:39.984Z,70.43
2017-08-28T09:09:39.971Z,70.33
2017-08-28T09:10:39.960Z,70.52
2017-08-28T09:11:39.951Z,70.23
2017-08-28T09:12:39.954Z,70.43
2017-08-28T09:13:40.148Z,70.56
2017-08-28T09:14:39.925Z,69.89
2017-08-28T09:15:39.933Z,70.27
2017-08-28T09:16:39.903Z,69.69
2017-08-28T09:17:39.908Z,69.60
2017-08-28T09:18:39.890Z,69.69
2017-08-28T09:19:39.920Z,69.69
2017-08-28T09:20:39.880Z,69.89
2017-08-28T09:21:40.311Z,69.89
2017-08-28T09:22:39.861Z,70.17
2017-08-28T09:23:39.855Z,69.79
2017-08-28T09:24:39.867Z,69.69
2017-08-28T09:25:39.839Z,69.21
2017-08-28T09:26:39.851Z,69.40
2017-08-28T09:27:40.049Z,69.50
2017-08-28T09:28:39.832Z,69.02
2017-08-28T09:29:39.812Z,69.12
2017-08-28T09:30:39.809Z,69.12
2017-08-28T09:31:39.815Z,69.21
2017-08-28T09:32:39.799Z,68.83
2017-08-28T09:33:40.150Z,68.48
2017-08-28T09:34:39.788Z,67.99
2017-08-28T09:35:39.783Z,68.09
2017-08-28T09:36:39.777Z,67.99
2017-08-28T09:37:39.759Z,68.38
2017-08-28T09:38:39.760Z,68.29
2017-08-28T09:39:40.052Z,67.99
2017-08-28T09:40:39.766Z,67.99
2017-08-28T09:41:39.729Z,68.48
2017-08-28T09:42:39.739Z,68.09
2017-08-28T09:43:39.730Z,68.09
2017-08-28T09:44:39.726Z,68.19
2017-08-28T09:45:39.744Z,68.29
2017-08-28T09:46:40.113Z,67.71
2017-08-28T09:47:39.691Z,67.61
2017-08-28T09:48:39.701Z,67.99
2017-08-28T09:49:39.699Z,67.99
2017-08-28T09:50:39.673Z,67.22
2017-08-28T09:51:39.679Z,67.42
2017-08-28T09:52:40.022Z,67.51
2017-08-28T09:53:39.660Z,67.42
2017-08-28T09:54:39.661Z,67.71
2017-08-28T09:55:39.640Z,66.97
2017-08-28T09:56:39.643Z,66.97
2017-08-28T09:57:39.648Z,67.13
2017-08-28T09:58:39.990Z,67.07
2017-08-28T09:59:39.613Z,67.26
2017-08-28T10:00:39.605Z,66.94
2017-08-28T10:01:39.613Z,67.26
2017-08-28T10:02:39.603Z,66.68
2017-08-28T10:03:39.588Z,66.58
2017-08-28T10:04:39.984Z,66.10
2017-08-28T10:05:39.590Z,66.97
2017-08-28T10:06:39.571Z,66.58
2017-08-28T10:07:39.574Z,66.39
2017-08-28T10:08:39.560Z,66.78
2017-08-28T10:09:39.548Z,66.78
2017-08-28T10:10:39.991Z,66.78
2017-08-28T10:11:39.558Z,66.01
2017-08-28T10:12:39.526Z,66.39
2017-08-28T10:13:39.546Z,66.49
2017-08-28T10:14:39.523Z,64.47
2017-08-28T10:15:39.529Z,65.05
2017-08-28T10:16:39.549Z,65.72
2017-08-28T10:17:39.791Z,65.05
2017-08-28T10:18:39.505Z,65.05
2017-08-28T10:19:39.503Z,65.14
2017-08-28T10:20:39.480Z,65.14
2017-08-28T10:21:39.471Z,65.05
2017-08-28T10:22:39.480Z,64.95
2017-08-28T10:23:39.908Z,64.95
2017-08-28T10:24:39.461Z,65.05
2017-08-28T10:25:39.442Z,65.08
2017-08-28T10:26:39.441Z,64.86
2017-08-28T10:27:39.441Z,64.76
2017-08-28T10:28:39.426Z,64.56
2017-08-28T10:29:39.856Z,64.89
2017-08-28T10:30:39.417Z,64.18
2017-08-28T10:31:39.406Z,64.02
2017-08-28T10:32:39.404Z,64.59
2017-08-28T10:33:39.407Z,64.21
2017-08-28T10:34:39.406Z,64.40
2017-08-28T10:35:39.940Z,64.31
2017-08-28T10:36:39.388Z,63.34
2017-08-28T10:37:39.380Z,63.54
2017-08-28T10:38:39.375Z,63.06
2017-08-28T10:39:39.359Z,63.34
2017-08-28T10:40:39.355Z,63.06
2017-08-28T10:41:39.370Z,63.15
2017-08-28T10:42:39.781Z,63.06
2017-08-28T10:43:39.333Z,62.67
2017-08-28T10:44:39.340Z,62.77
2017-08-28T10:45:39.328Z,62.67
2017-08-28T10:46:39.313Z,62.90
2017-08-28T10:47:39.319Z,62.87
2017-08-28T10:48:39.616Z,62.41
2017-08-28T10:49:39.294Z,62.41
2017-08-28T10:50:39.286Z,62.60
2017-08-28T10:51:39.287Z,62.70
2017-08-28T10:52:39.302Z,62.60
2017-08-28T10:53:39.282Z,62.60
2017-08-28T10:54:39.615Z,62.12
2017-08-28T10:55:39.263Z,60.77
2017-08-28T10:56:39.265Z,60.77
2017-08-28T10:57:39.247Z,61.45
2017-08-28T10:58:39.259Z,58.95
2017-08-28T10:59:39.272Z,59.72
2017-08-28T11:00:39.653Z,59.52
2017-08-28T11:01:39.233Z,60.30
2017-08-28T11:02:39.215Z,60.68
2017-08-28T11:03:39.212Z,60.13
2017-08-28T11:04:39.215Z,60.77
2017-08-28T11:05:39.202Z,60.20
2017-08-28T11:06:39.534Z,60.00
2017-08-28T11:07:39.204Z,60.58
2017-08-28T11:08:39.211Z,60.71
2017-08-28T11:09:39.202Z,60.23
2017-08-28T11:10:39.180Z,60.20
2017-08-28T11:11:39.162Z,60.10
2017-08-28T11:12:39.589Z,59.94
2017-08-28T11:13:39.150Z,60.32
2017-08-28T11:14:39.148Z,60.23
2017-08-28T11:15:39.154Z,60.32
2017-08-28T11:16:39.147Z,60.32
2017-08-28T11:17:39.129Z,60.13
2017-08-28T11:18:39.338Z,60.23
2017-08-28T11:19:39.116Z,59.65
2017-08-28T11:20:39.136Z,60.13
2017-08-28T11:21:39.105Z,59.94
2017-08-28T11:22:39.098Z,60.13
2017-08-28T11:23:39.105Z,59.94
2017-08-28T11:24:39.398Z,60.13
2017-08-28T11:25:39.082Z,59.94
2017-08-28T11:26:39.087Z,59.84
2017-08-28T11:27:39.083Z,59.65
2017-08-28T11:28:39.081Z,58.78
2017-08-28T11:29:39.069Z,58.69
2017-08-28T11:30:39.085Z,59.17
2017-08-28T11:31:39.058Z,59.07
2017-08-28T11:32:39.062Z,58.40
2017-08-28T11:33:39.504Z,59.17
2017-08-28T11:34:39.047Z,59.07
2017-08-28T11:35:39.034Z,58.97
2017-08-28T11:36:39.027Z,58.30
2017-08-28T11:37:39.027Z,58.49
2017-08-28T11:38:39.021Z,58.69
2017-08-28T11:39:39.355Z,57.82
2017-08-28T11:40:39.012Z,57.92
2017-08-28T11:41:39.004Z,58.04
2017-08-28T11:42:38.986Z,57.94
2017-08-28T11:43:38.994Z,58.78
2017-08-28T11:44:38.992Z,58.04
2017-08-28T11:45:39.788Z,57.65
2017-08-28T11:46:38.978Z,57.65
2017-08-28T11:47:38.960Z,57.65
2017-08-28T11:48:38.967Z,56.01
2017-08-28T11:49:38.948Z,57.07
2017-08-28T11:50:38.950Z,56.79
2017-08-28T11:51:38.987Z,57.27
2017-08-28T11:52:38.945Z,56.88
2017-08-28T11:53:39.303Z,56.40
2017-08-28T11:54:38.923Z,56.88
2017-08-28T11:55:38.932Z,57.07
2017-08-28T11:56:38.920Z,57.07
2017-08-28T11:57:38.905Z,56.59
2017-08-28T11:58:38.908Z,56.69
2017-08-28T11:59:39.364Z,56.40
2017-08-28T12:00:38.896Z,56.21
2017-08-28T12:01:38.882Z,56.91
2017-08-28T12:02:38.882Z,55.92
2017-08-28T12:03:38.876Z,55.54
2017-08-28T12:04:38.879Z,56.21
2017-08-28T12:05:39.240Z,56.24
2017-08-28T12:06:38.872Z,56.11
2017-08-28T12:07:38.849Z,56.24
2017-08-28T12:08:38.851Z,56.24
2017-08-28T12:09:38.837Z,55.76
2017-08-28T12:10:38.834Z,55.85
2017-08-28T12:11:38.862Z,56.14
2017-08-28T12:12:38.829Z,56.04
2017-08-28T12:13:38.845Z,55.94
2017-08-28T12:14:39.249Z,55.94
2017-08-28T12:15:38.825Z,56.04
2017-08-28T12:16:38.816Z,56.24
2017-08-28T12:17:38.815Z,55.85
2017-08-28T12:18:38.802Z,55.76
2017-08-28T12:19:38.798Z,55.85
2017-08-28T12:20:38.808Z,54.60
2017-08-28T12:21:38.789Z,54.88
2017-08-28T12:22:38.779Z,55.27
2017-08-28T12:23:38.763Z,54.98
2017-08-28T12:24:38.764Z,55.27
2017-08-28T12:25:38.796Z,55.27
2017-08-28T12:26:38.753Z,55.18
2017-08-28T12:27:38.745Z,55.40
2017-08-28T12:28:38.755Z,54.72
2017-08-28T12:29:38.752Z,54.91
2017-08-28T12:30:39.094Z,54.43
2017-08-28T12:31:38.727Z,54.43
2017-08-28T12:32:38.735Z,54.82
2017-08-28T12:33:38.747Z,54.82
2017-08-28T12:34:38.724Z,54.82
2017-08-28T12:35:38.708Z,54.62
2017-08-28T12:36:38.998Z,54.43
2017-08-28T12:37:38.712Z,54.62
2017-08-28T12:38:38.692Z,54.82
2017-08-28T12:39:38.699Z,54.55
2017-08-28T12:40:38.682Z,54.36
2017-08-28T12:41:38.681Z,53.30
2017-08-28T12:42:39.037Z,52.72
2017-08-28T12:43:38.686Z,53.20
2017-08-28T12:44:38.675Z,53.37
2017-08-28T12:45:38.661Z,53.56
2017-08-28T12:46:38.652Z,50.47
2017-08-28T12:47:38.673Z,49.73
2017-08-28T12:48:38.973Z,50.89
2017-08-28T12:49:38.647Z,47.99
2017-08-28T12:50:38.633Z,49.24
2017-08-28T12:51:38.643Z,50.21
2017-08-28T12:52:38.639Z,50.50